Weather observations for the past three days for
Longville, Longville Municipal Airport
Metric (Imperial)
Date Time (cdt) Wind (kph) Vis. (km) Weather Sky Cond. Temperature (ºC) Relative Humidity Wind Chill (°C) Heat Index (°C) Pressure Precipitation (cm)
Air Dwpt 6 hour altimeter (cm) sea level (mb) 1 hr 3 hr 6 hr
Max. Min.
16 07:33 SE 19 G 26 4.83 Thunderstorm Fog/Mist in Vicinity OVC004 17 17 100% 75.13 0.0
16 07:13 SE 17 3.22 Fog/Mist OVC004 17 17 100% 75.13 0.0
16 06:53 SE 13 2.82 Fog/Mist OVC004 17 16 94% 75.13 0.0
16 06:33 SE 9 2.01 Fog/Mist OVC004 17 16 94% 75.16 0.0
16 06:13 SE 9 3.22 Fog/Mist OVC004 17 16 94% 75.16 0.0
16 05:53 SE 7 4.02 Fog/Mist OVC004 17 16 94% 75.18 0.0
16 05:33 SE 13 8.05 Fog/Mist OVC004 17 16 94% 75.21 0.0
16 05:13 S 7 6.44 Fog/Mist OVC004 16 16 100% 75.26 0.0
16 04:53 SE 9 6.44 Fog/Mist OVC006 16 16 100% 75.26 0.0
16 04:33 SE 13 6.44 Fog/Mist OVC008 17 16 94% 75.26 0.0
16 04:13 SE 13 16.09 Overcast OVC008 17 16 94% 75.29 0.0
16 03:53 SE 15 16.09 Overcast OVC010 17 15 88% 75.26 0.0
16 03:33 SE 7 16.09 Overcast OVC010 17 15 88% 75.26 0.0
16 03:13 SE 11 16.09 Overcast OVC010 17 15 88% 75.29 0.0
16 02:53 SE 9 16.09 Overcast OVC010 17 15 88% 75.31 0.0
16 02:33 SE 13 16.09 Overcast OVC012 16 15 94% 75.31 0.0
16 02:13 SE 11 16.09 Overcast OVC012 17 15 88% 75.34 0.0
16 01:53 SE 13 16.09 Overcast OVC010 16 15 94% 75.39 0.0
16 01:33 SE 11 16.09 Overcast OVC008 16 15 94% 75.41 0.0
16 01:13 SE 11 16.09 Overcast OVC008 16 14 88% 75.41 0.0
16 00:53 SE 9 16.09 Overcast OVC008 16 14 88% 75.44 0.0
16 00:33 SE 9 16.09 Overcast OVC008 16 14 88% 75.49 0.0
16 00:13 SE 7 16.09 Overcast OVC008 16 14 88% 75.54 0.0
15 23:53 SE 9 16.09 Overcast OVC008 16 14 88% 75.54 0.0
15 23:33 SE 9 16.09 Overcast OVC008 16 14 88% 75.54 0.0
15 23:13 SE 9 16.09 Overcast OVC006 16 14 88% 75.57 0.0
15 22:53 SE 7 16.09 Overcast OVC006 15 14 94% 75.57 0.0
15 22:33 SE 13 8.05 Fog/Mist OVC006 15 14 94% 75.62 0.0
15 22:13 SE 9 6.44 Fog/Mist OVC006 15 14 94% 75.62 0.0
15 21:53 SE 7 4.02 Fog/Mist OVC006 16 14 88% 75.62 0.0
15 21:33 SE 11 6.44 Fog/Mist OVC009 16 14 88% 75.62 0.0
15 21:13 SE 19 G 26 16.09 Overcast OVC009 16 14 88% 75.62 0.0
15 20:53 SE 19 G 26 16.09 Overcast OVC011 16 14 88% 75.62 0.0
15 20:33 SE 20 G 28 16.09 Overcast OVC013 17 14 83% 75.62 0.0
15 20:13 SE 24 G 31 16.09 Overcast OVC013 17 14 83% 75.64 0.0
15 19:53 SE 24 G 31 16.09 Overcast OVC013 17 14 83% 75.67 0.0
15 19:33 SE 26 G 39 16.09 Overcast OVC015 17 14 83% 75.69 0.0
15 19:13 SE 20 G 35 16.09 Overcast OVC015 17 14 83% 75.72 0.0
15 18:53 SE 22 G 41 16.09 Overcast OVC017 18 14 78% 75.72 0.0
15 18:33 SE 26 G 31 16.09 Overcast BKN019 OVC030 18 14 78% 75.72 0.0
15 18:13 SE 24 G 37 16.09 Overcast BKN023 BKN030 OVC037 18 14 78% 75.77 0.0
15 17:53 SE 22 G 37 16.09 Overcast BKN027 OVC032 19 14 73% 75.77 0.0
15 17:33 SE 20 G 46 16.09 Overcast SCT028 BKN041 OVC080 19 14 73% 75.77 0.0
15 17:13 SE 20 G 44 16.09 Mostly Cloudy BKN080 20 13 64% 75.77 0.0
15 16:53 SE 24 G 35 16.09 Partly Cloudy SCT065 SCT080 20 13 64% 75.79 0.0
15 16:33 SE 19 G 35 16.09 Partly Cloudy SCT065 21 14 64% 75.79 0.0
15 16:13 S 22 G 41 16.09 Fair CLR 21 13 60% 75.82 0.0
15 15:53 S 26 G 43 16.09 Partly Cloudy SCT042 22 13 57% 75.82 0.0
15 15:33 S 28 G 35 16.09 Partly Cloudy SCT042 22 13 57% 75.84 0.0
15 15:13 SE 24 G 33 16.09 Fair CLR 23 14 57% 75.84 0.0
15 14:53 S 17 G 26 16.09 Fair CLR 23 14 57% 75.84 0.0
15 14:33 S 20 G 35 16.09 Fair CLR 23 14 57% 75.84 0.0
15 14:13 S 11 G 17 16.09 Fair CLR 23 14 57% 75.87 0.0
15 13:53 S 19 G 30 16.09 Fair CLR 23 13 53% 75.87 0.0
15 13:33 S 26 G 33 16.09 Fair CLR 23 14 57% 75.9 0.0
15 13:13 S 24 G 35 16.09 Fair CLR 23 14 57% 75.9 0.0
15 12:53 SE 22 G 30 16.09 Fair CLR 23 14 57% 75.92 0.0
15 12:33 S 15 G 28 16.09 Fair CLR 22 15 65% 75.92 0.0
15 12:13 SE 17 16.09 Fair CLR 22 15 65% 75.95 0.0
15 11:53 SE 13 16.09 Fair CLR 22 15 65% 75.95 0.0
15 11:33 S 20 16.09 Fair CLR 21 14 64% 75.97 0.0
15 11:13 S 22 G 30 16.09 Partly Cloudy SCT095 20 14 69% 76 0.0
15 10:53 SE 24 G 33 16.09 Partly Cloudy SCT095 20 14 69% 76.02 0.0
15 10:33 SE 13 16.09 Partly Cloudy SCT095 19 14 73% 76 0.0
15 10:13 SE 15 16.09 Partly Cloudy SCT095 18 14 78% 76.05 0.0
15 09:53 SE 9 16.09 Mostly Cloudy SCT085 BKN110 17 14 83% 76.05 0.0
15 09:33 SE 13 16.09 Light Drizzle SCT045 OVC095 17 14 83% 76.07 0.0
15 09:13 SE 13 16.09 Rain SCT036 SCT045 OVC095 17 14 83% 76.12 0.0
15 08:53 SE 13 16.09 Overcast SCT055 OVC095 17 13 77% 76.12 0.0
15 08:33 SE 13 16.09 Overcast OVC085 17 13 77% 76.1 0.0
15 08:13 SE 7 16.09 Overcast OVC085 17 13 77% 76.1 0.0
15 07:53 SE 7 16.09 Overcast OVC085 17 13 77% 76.12 0.0
15 07:33 SE 7 16.09 Overcast OVC085 17 13 77% 76.15 0.0
15 07:13 E 6 16.09 Overcast OVC085 17 13 77% 76.15 0.0
15 06:53 E 6 16.09 Overcast OVC085 17 13 77% 76.17 0.0
15 06:33 E 7 16.09 Overcast OVC095 17 13 77% 76.15 0.0
15 06:13 E 6 16.09 Light Rain OVC085 18 12 68% 76.12 0.0
15 05:53 SE 13 16.09 Overcast OVC085 18 12 68% 76.15 0.0
15 05:33 SE 13 16.09 Overcast OVC095 18 12 68% 76.12 0.0
15 05:13 SE 9 16.09 Mostly Cloudy BKN095 18 12 68% 76.15 0.0
15 04:53 S 11 16.09 Mostly Cloudy BKN110 18 12 68% 76.12 0.0
15 04:33 S 7 16.09 Overcast OVC100 17 13 77% 76.15 0.0
15 04:13 SE 6 16.09 Overcast OVC100 17 13 77% 76.17 0.0
15 03:53 SE 9 16.09 Overcast OVC100 17 13 77% 76.2 0.0
15 03:33 SE 9 16.09 Overcast OVC100 17 13 77% 76.2 0.0
15 03:13 Calm 16.09 Overcast OVC110 16 13 83% 76.2 0.0
15 02:53 Calm 16.09 Mostly Cloudy BKN120 15 13 88% 76.17 0.0
15 02:33 Calm 16.09 Partly Cloudy SCT110 15 13 88% 76.17 0.0
15 02:13 Calm 16.09 Partly Cloudy SCT110 16 13 83% 76.17 0.0
15 01:53 Calm 16.09 Mostly Cloudy SCT060 SCT075 BKN110 17 13 77% 76.2 0.0
15 01:33 Calm 16.09 Light Rain SCT046 BKN085 OVC110 18 13 73% 76.23 0.0
15 01:13 SE 6 16.09 Partly Cloudy SCT085 18 12 68% 76.23 0.0
15 00:53 S 9 16.09 Fair CLR 19 12 64% 76.25 0.0
15 00:33 S 7 16.09 Partly Cloudy SCT110 19 12 64% 76.25 0.0
15 00:13 S 9 16.09 Partly Cloudy SCT110 18 13 73% 76.25 0.0
14 23:53 SE 7 16.09 Fair CLR 18 13 73% 76.23 0.0
14 23:33 SE 6 16.09 Fair CLR 18 13 73% 76.23 0.0
14 23:13 Calm 16.09 Fair CLR 18 13 73% 76.25 0.0
14 22:53 SE 7 16.09 Fair CLR 18 13 73% 76.25 0.0
14 22:33 SE 6 16.09 Partly Cloudy SCT065 18 13 73% 76.28 0.0
14 22:13 SE 9 16.09 Fair CLR 17 13 77% 76.28 0.0
14 21:53 Calm 16.09 Fair CLR 16 13 83% 76.28 0.0
14 21:33 Calm 16.09 Fair CLR 16 12 77% 76.28 0.0
14 21:13 Calm 16.09 Fair CLR 17 13 77% 76.28 0.0
14 20:53 Calm 16.09 Fair CLR 18 13 73% 76.25 0.0
14 20:33 SE 6 16.09 Fair CLR 21 12 57% 76.23 0.0
14 20:13 SE 7 16.09 Fair CLR 22 12 53% 76.25 0.0
14 19:53 SE 9 16.09 Fair CLR 23 12 50% 76.25 0.0
14 19:33 SE 11 16.09 Fair CLR 23 12 50% 76.23 0.0
14 19:13 S 11 16.09 Fair CLR 24 12 47% 25 76.25 0.0
14 18:53 SE 15 16.09 Partly Cloudy SCT065 24 12 47% 25 76.25 0.0
14 18:33 S 13 16.09 Partly Cloudy SCT065 24 11 44% 25 76.25 0.0
14 18:13 S 7 16.09 Fair CLR 24 11 44% 25 76.25 0.0
14 17:53 SW 11 16.09 Fair CLR 24 9 39% 25 76.25 0.0
14 17:33 S 9 16.09 Fair CLR 24 10 41% 25 76.25 0.0
14 17:13 S 9 16.09 Fair CLR 24 10 41% 25 76.28 0.0
14 16:53 S 9 16.09 Fair CLR 24 10 41% 25 76.28 0.0
14 16:33 W 6 16.09 Fair CLR 24 10 41% 25 76.3 0.0
14 16:13 Calm 16.09 Fair CLR 24 9 39% 25 76.3 0.0
14 15:53 Calm 16.09 Partly Cloudy SCT065 24 10 41% 25 76.33 0.0
14 15:33 Calm 16.09 Fair CLR 24 9 39% 25 76.33 0.0
14 15:13 Calm 16.09 Fair CLR 24 11 44% 25 76.33 0.0
14 14:53 Calm 16.09 Fair CLR 24 11 44% 25 76.35 0.0
14 14:33 SW 7 16.09 Fair CLR 23 11 47% 76.35 0.0
14 14:13 SW 9 16.09 Fair CLR 23 11 47% 76.38 0.0
14 13:53 S 9 16.09 Fair CLR 23 11 47% 76.4 0.0
14 13:33 S 7 16.09 Partly Cloudy SCT050 23 11 47% 76.38 0.0
14 13:13 S 9 16.09 Partly Cloudy SCT060 23 11 47% 76.38 0.0
14 12:53 S 7 16.09 Partly Cloudy SCT049 22 11 50% 76.4 0.0
14 12:33 Calm 16.09 Fair CLR 22 11 50% 76.4 0.0
14 12:13 S 7 16.09 Fair CLR 22 12 53% 76.43 0.0
14 11:53 Calm 16.09 Fair CLR 22 12 53% 76.43 0.0
14 11:33 W 7 16.09 Fair CLR 21 12 57% 76.43 0.0
14 11:13 S 9 16.09 Fair CLR 21 11 53% 76.45 0.0
14 10:53 S 7 16.09 Fair CLR 21 11 53% 76.45 0.0
14 10:33 W 6 16.09 Fair CLR 20 12 60% 76.45 0.0
14 10:13 S 6 16.09 Partly Cloudy SCT033 18 11 64% 76.45 0.0
14 09:53 W 6 16.09 Partly Cloudy SCT033 19 12 64% 76.43 0.0
14 09:33 Calm 16.09 Partly Cloudy SCT029 19 13 68% 76.43 0.0
14 09:13 Calm 16.09 Fair CLR 19 12 64% 76.43 0.0
14 08:53 Calm 16.09 Fair CLR 18 13 73% 76.43 0.0
14 08:33 Calm 16.09 Fair CLR 18 13 73% 76.43 0.0
14 08:13 Calm 16.09 Fair CLR 17 14 83% 76.43 0.0
14 07:53 Calm 16.09 Fair CLR 17 14 83% 76.43 0.0
14 07:33 Calm 16.09 Fair CLR 15 14 94% 76.4 0.0
14 07:13 Calm 16.09 Fair CLR 13 13 100% 76.4 0.0
14 06:53 Calm 16.09 Fair CLR 12 12 100% 76.38 0.0
14 06:33 Calm 16.09 Fair CLR 11 11 100% 76.35 0.0
14 06:13 Calm 16.09 Fair CLR 9 9 100% 76.35 0.0
14 05:53 Calm 16.09 Fair CLR 9 9 100% 76.35 0.0
14 05:33 Calm 6.44 Fog/Mist CLR 9 9 100% 76.33 0.0
14 05:13 Calm 0.40 Fog VV002 10 10 100% 76.3 0.0
14 04:53 Calm 8.05 Fog/Mist CLR 10 10 100% 76.28 0.0
14 04:33 Calm 4.83 Fog/Mist CLR 10 10 100% 76.25 0.0
14 04:13 Calm 16.09 Fair CLR 10 10 100% 76.25 0.0
14 03:53 Calm 2.01 Fog/Mist VV007 11 11 100% 76.25 0.0
14 03:33 Calm 2.01 Fog/Mist VV007 10 10 100% 76.23 0.0
14 03:13 Calm 16.09 Fair CLR 11 10 94% 76.2 0.0
14 02:53 Calm 1.61 Fog/Mist VV007 11 11 100% 76.23 0.0
14 02:33 Calm 16.09 Fair CLR 11 11 100% 76.2 0.0
14 02:13 Calm 16.09 Partly Cloudy SCT090 11 10 94% 76.2 0.0
14 01:53 Calm 16.09 Fair CLR 11 11 100% 76.2 0.0
14 01:33 Calm 16.09 Fair CLR 11 11 100% 76.2 0.0
14 01:13 Calm 16.09 Fair CLR 12 11 94% 76.17 0.0
14 00:53 Calm 16.09 Fair CLR 12 11 94% 76.15 0.0
14 00:33 Calm 16.09 Fair CLR 12 11 94% 76.15 0.0
14 00:13 Calm 16.09 Fair CLR 12 11 94% 76.12 0.0
13 23:53 Calm 16.09 Fair CLR 13 12 94% 76.15 0.0
13 23:33 Calm 16.09 Fair CLR 14 12 88% 76.12 0.0
13 23:13 Calm 16.09 Fair CLR 14 11 82% 76.12 0.0
13 22:53 Calm 16.09 Fair CLR 14 12 88% 76.1 0.0
13 22:33 Calm 16.09 Fair CLR 16 11 72% 76.1 0.0
13 22:13 Calm 16.09 Fair CLR 16 11 72% 76.07 0.0
13 21:53 Calm 16.09 Fair CLR 17 11 68% 76.07 0.0
13 21:33 Calm 16.09 Fair CLR 18 11 64% 76.02 0.0
13 21:13 NW 6 16.09 Fair CLR 18 11 64% 76 0.0
13 20:53 NW 9 16.09 Fair CLR 19 11 60% 75.97 0.0
13 20:33 NW 9 16.09 Partly Cloudy SCT085 19 10 56% 75.97 0.0
13 20:13 NW 11 16.09 Mostly Cloudy BKN085 21 10 50% 75.97 0.0
13 19:53 NW 15 16.09 Mostly Cloudy BKN085 21 10 50% 75.95 0.0
13 19:33 W 15 16.09 Partly Cloudy SCT085 21 10 50% 75.95 0.0
13 19:13 NW 17 G 26 16.09 Fair CLR 22 10 47% 75.95 0.0
13 18:53 NW 15 G 26 16.09 Fair CLR 22 10 47% 75.92 0.0
13 18:33 NW 15 G 31 16.09 Partly Cloudy SCT085 23 10 44% 75.9 0.0
13 18:13 NW 19 G 31 16.09 Fair CLR 23 9 41% 75.87 0.0
13 17:53 W 17 G 33 16.09 Fair CLR 24 8 36% 25 75.84 0.0
13 17:33 W 17 G 28 16.09 Partly Cloudy SCT085 23 8 38% 75.82 0.0
13 17:13 W 19 G 31 16.09 Partly Cloudy SCT095 24 8 36% 25 75.82 0.0
13 16:53 W 22 G 43 16.09 Partly Cloudy SCT085 24 7 34% 25 75.82 0.0
13 16:33 W 24 G 35 16.09 Mostly Cloudy BKN085 24 7 34% 25 75.82 0.0
13 16:13 W 17 G 31 16.09 Partly Cloudy SCT085 24 8 36% 25 75.79 0.0
13 15:53 W 19 G 43 16.09 Fair CLR 25 7 32% 25 75.79 0.0
13 15:33 W 19 G 26 16.09 Partly Cloudy SCT095 24 8 36% 25 75.79 0.0
13 15:13 NW 7 16.09 Partly Cloudy SCT085 23 8 38% 75.79 0.0
13 14:53 W 13 G 26 16.09 Mostly Cloudy BKN085 23 8 38% 75.79 0.0
13 14:33 W 19 G 28 16.09 Mostly Cloudy SCT085 BKN110 23 7 36% 75.79 0.0
13 14:13 W 22 16.09 Partly Cloudy SCT085 24 7 34% 25 75.79 0.0
13 13:53 W 19 G 30 16.09 Partly Cloudy SCT085 SCT100 23 8 38% 75.82 0.0
13 13:33 W 17 G 35 16.09 Partly Cloudy SCT085 SCT100 22 7 38% 75.82 0.0
13 13:13 W 20 16.09 Mostly Cloudy BKN075 BKN095 23 8 38% 75.82 0.0
13 12:53 W 15 16.09 Partly Cloudy SCT075 SCT085 23 9 41% 75.82 0.0
13 12:33 W 17 G 26 16.09 Partly Cloudy SCT070 SCT085 23 8 38% 75.79 0.0
13 12:13 W 15 16.09 Partly Cloudy SCT070 SCT085 23 9 41% 75.82 0.0
13 11:53 W 11 G 28 16.09 Partly Cloudy SCT070 SCT085 22 9 44% 75.82 0.0
13 11:33 W 11 16.09 Fair CLR 23 9 41% 75.79 0.0
13 11:13 W 15 16.09 Fair CLR 23 9 41% 75.79 0.0
13 10:33 W 13 16.09 Fair CLR 22 8 41% 75.79 0.0
13 10:13 W 13 16.09 Fair CLR 21 9 46% 75.79 0.0
13 09:53 W 9 16.09 Fair CLR 21 10 50% 75.77 0.0
13 09:33 W 9 16.09 Fair CLR 21 12 57% 75.77 0.0
13 09:13 W 13 16.09 Fair CLR 19 12 64% 75.74 0.0
13 08:53 W 13 16.09 Fair CLR 19 12 64% 75.74 0.0
13 08:33 W 9 16.09 Fair CLR 18 13 73% 75.72 0.0
13 08:13 NW 13 16.09 Fair CLR 18 13 73% 75.72 0.0
13 07:53 NW 15 16.09 Fair CLR 17 13 77% 75.69 0.0
Date Time (cdt) Wind (kph) Vis. (km) Weather Sky Cond. Air Dwpt Max. Min. Relative Humidity Wind Chill (°C) Heat Index (°C) altimeter (cm) sea level (mb) 1 hr 3 hr 6 hr
6 hour
Temperature (ºC) Pressure Precipitation (cm)